Bratts Lake, Saskatchewan

7:25 PM CST on July 28, 2016 (GMT -0600)
Albert Park | | Change Station

Elev 1900 ft 50.40 °N, 104.63 °W | Updated 8 minutes ago

Partly Cloudy
Partly Cloudy
72.9 °F
Feels Like 77 °F
N
0.0
Wind Variable Wind from ESE
Gusts 3.0 mph

Today
High -- | Low -- °F
--% Chance of Precip.
Yesterday
High -- | Low -- °F
Precip. -- in
Pressure 30.13 in
Visibility 15.0 miles
Clouds Few 32000 ft
Heat Index 77 °F
Dew Point 53 °F
Humidity 50%
Rainfall in
Snow Depth Not available.
5:22 AM 8:46 PM
Waning Crescent, 27% visible
METAR CYQR 290100Z 19004KT 15SM FEW320 24/10 A3011 RMK CI1 SLP201 DENSITY ALT 3100FT
Pressure 30.13 in
Visibility 15.0 miles
Clouds Few 32000 ft
Heat Index 77 °F
Dew Point 53 °F
Humidity 50%
Rainfall in
Snow Depth Not available.
5:22 AM 8:46 PM
Waning Crescent, 27% visible
METAR CYQR 290100Z 19004KT 15SM FEW320 24/10 A3011 RMK CI1 SLP201 DENSITY ALT 3100FT

10-Day Weather Forecast

Almanac

Astronomy

Jul. 28, 2016 Rise Set
Actual Time
Civil Twilight
Nautical Twilight
Astronomical Twilight
Moon
Length of Visible Light
Length of Day
Tomorrow will be .
, % of the Moon is Illuminated

Today's Extremes

Country Highs Country Lows

Community

WunderPhotos

Upload Photos

1,928,246 photos uploaded!

WunderBlog® & News

Nearby

Air Quality

  Air Quality AQ Index Pollutant
Not available.

Snow Depth

Station Depth Elevation

Earthquake Activity

City Distance Mag. Time & Date
Minimum magnitude displayed is 2.5.

Coastal Water Temperatures

Place Temperature

Stations

Nearby Weather Stations

Station Location Temp. Windchill Dew Point Humidity Wind Precip. Elev Updated Type
                   

Watches & Warnings

There are currently no watches in effect.